sensor_id;sensor_type;location;lat;lon;timestamp;P1;durP1;ratioP1;P2;durP2;ratioP2
3465;SDS011;1747;48.884;9.160;2023-05-10T04:35:37;1.42;;;1.30;;
3465;SDS011;1747;48.884;9.160;2023-05-10T04:38:04;2.88;;;1.30;;
3465;SDS011;1747;48.884;9.160;2023-05-10T04:40:31;2.38;;;1.10;;
3465;SDS011;1747;48.884;9.160;2023-05-10T04:42:59;1.02;;;1.00;;
3465;SDS011;1747;48.884;9.160;2023-05-10T04:45:26;2.47;;;1.08;;
3465;SDS011;1747;48.884;9.160;2023-05-10T04:47:52;2.10;;;1.25;;
3465;SDS011;1747;48.884;9.160;2023-05-10T04:50:19;1.98;;;0.98;;
3465;SDS011;1747;48.884;9.160;2023-05-10T04:52:47;1.20;;;1.10;;
3465;SDS011;1747;48.884;9.160;2023-05-10T04:55:14;3.83;;;1.30;;
3465;SDS011;1747;48.884;9.160;2023-05-10T04:57:41;1.35;;;1.20;;
3465;SDS011;1747;48.884;9.160;2023-05-10T05:00:08;1.48;;;1.38;;
3465;SDS011;1747;48.884;9.160;2023-05-10T05:02:36;2.67;;;1.42;;
3465;SDS011;1747;48.884;9.160;2023-05-10T05:05:03;3.50;;;1.58;;
3465;SDS011;1747;48.884;9.160;2023-05-10T05:07:30;1.73;;;1.38;;
3465;SDS011;1747;48.884;9.160;2023-05-10T05:09:58;3.40;;;1.30;;
3465;SDS011;1747;48.884;9.160;2023-05-10T05:12:25;1.85;;;1.38;;
3465;SDS011;1747;48.884;9.160;2023-05-10T05:14:52;1.17;;;1.08;;
3465;SDS011;1747;48.884;9.160;2023-05-10T05:17:19;2.42;;;1.20;;
3465;SDS011;1747;48.884;9.160;2023-05-10T05:19:45;2.83;;;1.33;;
3465;SDS011;1747;48.884;9.160;2023-05-10T05:22:12;1.40;;;1.30;;
3465;SDS011;1747;48.884;9.160;2023-05-10T05:24:39;1.25;;;1.15;;
3465;SDS011;1747;48.884;9.160;2023-05-10T05:27:08;2.35;;;1.50;;
3465;SDS011;1747;48.884;9.160;2023-05-10T05:29:37;3.00;;;1.40;;
3465;SDS011;1747;48.884;9.160;2023-05-10T05:32:04;4.38;;;1.10;;
3465;SDS011;1747;48.884;9.160;2023-05-10T05:34:33;1.33;;;1.23;;
3465;SDS011;1747;48.884;9.160;2023-05-10T05:37:00;2.13;;;1.40;;
3465;SDS011;1747;48.884;9.160;2023-05-10T05:39:27;3.00;;;1.40;;
3465;SDS011;1747;48.884;9.160;2023-05-10T05:41:54;2.72;;;1.90;;
3465;SDS011;1747;48.884;9.160;2023-05-10T05:44:22;2.65;;;1.63;;
3465;SDS011;1747;48.884;9.160;2023-05-10T05:46:50;2.17;;;1.55;;
3465;SDS011;1747;48.884;9.160;2023-05-10T05:49:17;1.95;;;1.70;;
3465;SDS011;1747;48.884;9.160;2023-05-10T05:51:44;2.08;;;1.70;;
3465;SDS011;1747;48.884;9.160;2023-05-10T05:54:11;1.65;;;1.50;;
3465;SDS011;1747;48.884;9.160;2023-05-10T05:56:37;3.55;;;1.80;;
3465;SDS011;1747;48.884;9.160;2023-05-10T05:59:04;3.15;;;1.55;;
3465;SDS011;1747;48.884;9.160;2023-05-10T06:01:33;1.98;;;1.70;;
3465;SDS011;1747;48.884;9.160;2023-05-10T06:03:59;2.67;;;1.73;;
3465;SDS011;1747;48.884;9.160;2023-05-10T06:06:26;2.17;;;1.75;;
3465;SDS011;1747;48.884;9.160;2023-05-10T06:08:53;2.50;;;1.95;;
3465;SDS011;1747;48.884;9.160;2023-05-10T06:11:20;2.00;;;1.77;;
3465;SDS011;1747;48.884;9.160;2023-05-10T06:13:47;2.70;;;1.63;;
3465;SDS011;1747;48.884;9.160;2023-05-10T06:16:14;2.08;;;1.65;;
3465;SDS011;1747;48.884;9.160;2023-05-10T06:18:42;1.98;;;1.48;;
3465;SDS011;1747;48.884;9.160;2023-05-10T06:21:09;3.58;;;1.63;;
3465;SDS011;1747;48.884;9.160;2023-05-10T06:23:36;4.05;;;2.30;;
3465;SDS011;1747;48.884;9.160;2023-05-10T06:26:03;1.85;;;1.70;;
3465;SDS011;1747;48.884;9.160;2023-05-10T06:28:30;3.08;;;1.58;;
3465;SDS011;1747;48.884;9.160;2023-05-10T06:30:58;3.50;;;1.98;;
3465;SDS011;1747;48.884;9.160;2023-05-10T06:33:25;2.88;;;1.75;;
3465;SDS011;1747;48.884;9.160;2023-05-10T06:35:53;2.47;;;1.50;;
3465;SDS011;1747;48.884;9.160;2023-05-10T06:38:20;2.38;;;1.55;;
3465;SDS011;1747;48.884;9.160;2023-05-10T06:40:47;1.88;;;1.63;;
3465;SDS011;1747;48.884;9.160;2023-05-10T06:43:14;2.80;;;1.90;;
3465;SDS011;1747;48.884;9.160;2023-05-10T06:45:41;2.00;;;1.50;;
3465;SDS011;1747;48.884;9.160;2023-05-10T06:48:10;2.25;;;1.60;;
3465;SDS011;1747;48.884;9.160;2023-05-10T06:50:37;2.78;;;1.70;;
3465;SDS011;1747;48.884;9.160;2023-05-10T06:53:05;1.90;;;1.45;;
3465;SDS011;1747;48.884;9.160;2023-05-10T06:55:32;3.00;;;1.40;;
3465;SDS011;1747;48.884;9.160;2023-05-10T06:57:58;1.63;;;1.50;;
3465;SDS011;1747;48.884;9.160;2023-05-10T07:00:25;1.40;;;1.15;;
3465;SDS011;1747;48.884;9.160;2023-05-10T07:02:52;4.20;;;1.60;;
3465;SDS011;1747;48.884;9.160;2023-05-10T07:05:20;2.03;;;1.20;;
3465;SDS011;1747;48.884;9.160;2023-05-10T07:07:47;3.38;;;1.35;;
3465;SDS011;1747;48.884;9.160;2023-05-10T07:10:15;2.03;;;1.83;;
3465;SDS011;1747;48.884;9.160;2023-05-10T07:12:42;1.20;;;1.10;;
3465;SDS011;1747;48.884;9.160;2023-05-10T07:15:09;3.10;;;1.10;;
3465;SDS011;1747;48.884;9.160;2023-05-10T07:17:36;1.35;;;1.00;;
3465;SDS011;1747;48.884;9.160;2023-05-10T07:20:03;1.38;;;1.15;;
3465;SDS011;1747;48.884;9.160;2023-05-10T07:22:31;1.95;;;1.20;;
3465;SDS011;1747;48.884;9.160;2023-05-10T07:24:58;3.42;;;1.25;;
3465;SDS011;1747;48.884;9.160;2023-05-10T07:27:26;1.17;;;0.98;;
3465;SDS011;1747;48.884;9.160;2023-05-10T07:29:53;1.73;;;1.15;;
3465;SDS011;1747;48.884;9.160;2023-05-10T07:32:21;1.38;;;1.13;;
3465;SDS011;1747;48.884;9.160;2023-05-10T07:34:48;1.20;;;0.98;;
3465;SDS011;1747;48.884;9.160;2023-05-10T07:37:15;1.30;;;0.95;;
3465;SDS011;1747;48.884;9.160;2023-05-10T07:39:42;0.93;;;0.90;;
3465;SDS011;1747;48.884;9.160;2023-05-10T07:42:08;0.70;;;0.70;;
3465;SDS011;1747;48.884;9.160;2023-05-10T07:44:36;3.25;;;0.90;;
3465;SDS011;1747;48.884;9.160;2023-05-10T07:47:03;0.60;;;0.60;;
3465;SDS011;1747;48.884;9.160;2023-05-10T07:49:31;2.15;;;1.08;;
3465;SDS011;1747;48.884;9.160;2023-05-10T07:51:57;2.25;;;0.70;;
3465;SDS011;1747;48.884;9.160;2023-05-10T07:54:24;2.10;;;0.90;;
3465;SDS011;1747;48.884;9.160;2023-05-10T07:56:51;2.67;;;1.13;;
3465;SDS011;1747;48.884;9.160;2023-05-10T07:59:18;1.15;;;0.80;;
3465;SDS011;1747;48.884;9.160;2023-05-10T08:01:46;0.90;;;0.75;;
3465;SDS011;1747;48.884;9.160;2023-05-10T08:04:13;0.73;;;0.60;;
3465;SDS011;1747;48.884;9.160;2023-05-10T08:06:40;1.67;;;0.70;;
3465;SDS011;1747;48.884;9.160;2023-05-10T08:09:07;0.60;;;0.60;;
3465;SDS011;1747;48.884;9.160;2023-05-10T08:11:34;2.50;;;0.82;;
3465;SDS011;1747;48.884;9.160;2023-05-10T08:14:01;0.65;;;0.50;;
3465;SDS011;1747;48.884;9.160;2023-05-10T08:16:28;1.27;;;0.50;;
3465;SDS011;1747;48.884;9.160;2023-05-10T08:18:56;0.70;;;0.70;;
3465;SDS011;1747;48.884;9.160;2023-05-10T08:21:23;0.50;;;0.50;;
3465;SDS011;1747;48.884;9.160;2023-05-10T08:23:49;0.50;;;0.50;;
3465;SDS011;1747;48.884;9.160;2023-05-10T08:26:16;1.95;;;0.70;;
3465;SDS011;1747;48.884;9.160;2023-05-10T08:28:43;0.40;;;0.40;;
3465;SDS011;1747;48.884;9.160;2023-05-10T08:31:10;0.50;;;0.50;;
3465;SDS011;1747;48.884;9.160;2023-05-10T08:33:38;0.68;;;0.52;;
3465;SDS011;1747;48.884;9.160;2023-05-10T08:36:06;0.63;;;0.50;;
3465;SDS011;1747;48.884;9.160;2023-05-10T08:38:34;1.30;;;0.47;;
3465;SDS011;1747;48.884;9.160;2023-05-10T08:41:01;0.50;;;0.43;;
3465;SDS011;1747;48.884;9.160;2023-05-10T08:43:28;0.88;;;0.60;;
3465;SDS011;1747;48.884;9.160;2023-05-10T08:45:56;0.40;;;0.40;;
3465;SDS011;1747;48.884;9.160;2023-05-10T08:48:26;0.80;;;0.43;;
3465;SDS011;1747;48.884;9.160;2023-05-10T08:50:55;0.82;;;0.55;;
3465;SDS011;1747;48.884;9.160;2023-05-10T08:53:28;0.47;;;0.47;;
3465;SDS011;1747;48.884;9.160;2023-05-10T08:55:59;0.85;;;0.60;;
3465;SDS011;1747;48.884;9.160;2023-05-10T08:58:27;0.40;;;0.30;;
3465;SDS011;1747;48.884;9.160;2023-05-10T09:00:53;1.20;;;0.50;;
3465;SDS011;1747;48.884;9.160;2023-05-10T09:03:21;0.80;;;0.40;;
3465;SDS011;1747;48.884;9.160;2023-05-10T09:05:48;0.43;;;0.43;;
3465;SDS011;1747;48.884;9.160;2023-05-10T09:08:15;0.73;;;0.50;;
3465;SDS011;1747;48.884;9.160;2023-05-10T09:10:45;1.50;;;0.52;;
3465;SDS011;1747;48.884;9.160;2023-05-10T09:13:13;0.60;;;0.60;;
3465;SDS011;1747;48.884;9.160;2023-05-10T09:15:41;0.85;;;0.40;;
3465;SDS011;1747;48.884;9.160;2023-05-10T09:18:09;0.47;;;0.40;;
3465;SDS011;1747;48.884;9.160;2023-05-10T09:20:35;0.50;;;0.50;;
3465;SDS011;1747;48.884;9.160;2023-05-10T09:23:02;0.65;;;0.40;;
3465;SDS011;1747;48.884;9.160;2023-05-10T09:25:30;1.15;;;0.57;;
3465;SDS011;1747;48.884;9.160;2023-05-10T09:27:59;0.40;;;0.40;;
3465;SDS011;1747;48.884;9.160;2023-05-10T09:30:27;0.50;;;0.40;;
3465;SDS011;1747;48.884;9.160;2023-05-10T09:32:55;0.30;;;0.30;;
3465;SDS011;1747;48.884;9.160;2023-05-10T09:35:24;0.77;;;0.57;;
3465;SDS011;1747;48.884;9.160;2023-05-10T09:37:52;2.67;;;0.70;;
3465;SDS011;1747;48.884;9.160;2023-05-10T09:40:21;0.65;;;0.50;;
3465;SDS011;1747;48.884;9.160;2023-05-10T09:42:52;1.02;;;0.55;;
3465;SDS011;1747;48.884;9.160;2023-05-10T09:45:22;0.60;;;0.40;;
3465;SDS011;1747;48.884;9.160;2023-05-10T09:47:50;0.68;;;0.52;;
3465;SDS011;1747;48.884;9.160;2023-05-10T09:50:17;1.85;;;0.63;;
3465;SDS011;1747;48.884;9.160;2023-05-10T09:52:46;0.85;;;0.70;;
3465;SDS011;1747;48.884;9.160;2023-05-10T09:55:14;1.35;;;0.50;;
3465;SDS011;1747;48.884;9.160;2023-05-10T09:57:42;1.95;;;0.80;;
3465;SDS011;1747;48.884;9.160;2023-05-10T10:00:09;0.52;;;0.52;;
3465;SDS011;1747;48.884;9.160;2023-05-10T10:02:38;0.50;;;0.50;;
3465;SDS011;1747;48.884;9.160;2023-05-10T10:05:06;1.77;;;0.70;;
3465;SDS011;1747;48.884;9.160;2023-05-10T10:07:33;1.65;;;0.38;;
3465;SDS011;1747;48.884;9.160;2023-05-10T10:10:01;0.98;;;0.47;;
3465;SDS011;1747;48.884;9.160;2023-05-10T10:12:29;1.77;;;0.50;;
3465;SDS011;1747;48.884;9.160;2023-05-10T10:14:57;0.95;;;0.70;;
3465;SDS011;1747;48.884;9.160;2023-05-10T10:17:26;1.52;;;0.50;;
3465;SDS011;1747;48.884;9.160;2023-05-10T10:19:55;0.82;;;0.63;;
3465;SDS011;1747;48.884;9.160;2023-05-10T10:22:23;1.33;;;0.70;;
3465;SDS011;1747;48.884;9.160;2023-05-10T10:24:50;3.20;;;0.65;;
3465;SDS011;1747;48.884;9.160;2023-05-10T10:27:20;2.88;;;0.63;;
3465;SDS011;1747;48.884;9.160;2023-05-10T10:29:59;0.73;;;0.47;;
3465;SDS011;1747;48.884;9.160;2023-05-10T10:32:35;0.75;;;0.43;;
3465;SDS011;1747;48.884;9.160;2023-05-10T10:35:14;0.90;;;0.50;;
3465;SDS011;1747;48.884;9.160;2023-05-10T10:37:43;1.92;;;0.57;;
3465;SDS011;1747;48.884;9.160;2023-05-10T10:40:22;1.10;;;0.60;;
3465;SDS011;1747;48.884;9.160;2023-05-10T10:42:50;0.43;;;0.43;;
3465;SDS011;1747;48.884;9.160;2023-05-10T10:45:17;2.28;;;0.60;;
3465;SDS011;1747;48.884;9.160;2023-05-10T10:47:44;1.52;;;0.43;;
3465;SDS011;1747;48.884;9.160;2023-05-10T10:50:11;3.83;;;0.68;;
3465;SDS011;1747;48.884;9.160;2023-05-10T10:52:40;0.47;;;0.40;;
3465;SDS011;1747;48.884;9.160;2023-05-10T10:55:08;0.40;;;0.40;;
3465;SDS011;1747;48.884;9.160;2023-05-10T10:57:48;1.38;;;0.50;;
3465;SDS011;1747;48.884;9.160;2023-05-10T11:00:26;0.40;;;0.40;;
3465;SDS011;1747;48.884;9.160;2023-05-10T11:02:56;1.67;;;0.40;;
3465;SDS011;1747;48.884;9.160;2023-05-10T11:05:25;1.02;;;0.70;;
3465;SDS011;1747;48.884;9.160;2023-05-10T11:08:08;1.08;;;0.70;;
3465;SDS011;1747;48.884;9.160;2023-05-10T11:10:37;1.63;;;0.82;;
3465;SDS011;1747;48.884;9.160;2023-05-10T11:13:04;2.38;;;0.57;;
3465;SDS011;1747;48.884;9.160;2023-05-10T11:15:33;0.80;;;0.50;;
3465;SDS011;1747;48.884;9.160;2023-05-10T11:18:16;1.08;;;0.65;;
3465;SDS011;1747;48.884;9.160;2023-05-10T11:20:43;1.17;;;0.80;;
3465;SDS011;1747;48.884;9.160;2023-05-10T11:23:17;1.35;;;0.50;;
3465;SDS011;1747;48.884;9.160;2023-05-10T11:25:45;3.33;;;0.55;;
3465;SDS011;1747;48.884;9.160;2023-05-10T11:28:12;1.35;;;0.60;;
3465;SDS011;1747;48.884;9.160;2023-05-10T11:30:40;1.55;;;0.60;;
3465;SDS011;1747;48.884;9.160;2023-05-10T11:33:09;0.77;;;0.63;;
3465;SDS011;1747;48.884;9.160;2023-05-10T11:35:40;1.85;;;0.70;;
3465;SDS011;1747;48.884;9.160;2023-05-10T11:38:07;1.25;;;0.63;;
3465;SDS011;1747;48.884;9.160;2023-05-10T11:40:37;1.55;;;0.80;;
3465;SDS011;1747;48.884;9.160;2023-05-10T11:43:04;1.00;;;0.70;;
3465;SDS011;1747;48.884;9.160;2023-05-10T11:45:31;1.48;;;0.80;;
3465;SDS011;1747;48.884;9.160;2023-05-10T11:47:59;1.73;;;0.70;;
3465;SDS011;1747;48.884;9.160;2023-05-10T11:50:26;2.15;;;0.95;;
3465;SDS011;1747;48.884;9.160;2023-05-10T11:52:54;1.33;;;1.00;;
3465;SDS011;1747;48.884;9.160;2023-05-10T11:55:21;8.15;;;1.67;;
3465;SDS011;1747;48.884;9.160;2023-05-10T11:57:52;1.42;;;0.93;;
3465;SDS011;1747;48.884;9.160;2023-05-10T12:00:20;1.10;;;0.80;;
3465;SDS011;1747;48.884;9.160;2023-05-10T12:02:47;4.10;;;0.90;;
3465;SDS011;1747;48.884;9.160;2023-05-10T12:05:15;0.68;;;0.68;;
3465;SDS011;1747;48.884;9.160;2023-05-10T12:07:42;2.22;;;0.98;;
3465;SDS011;1747;48.884;9.160;2023-05-10T12:10:09;1.40;;;0.90;;
3465;SDS011;1747;48.884;9.160;2023-05-10T12:12:39;1.60;;;0.93;;
3465;SDS011;1747;48.884;9.160;2023-05-10T12:15:12;3.47;;;0.70;;
3465;SDS011;1747;48.884;9.160;2023-05-10T12:17:44;1.50;;;0.88;;
3465;SDS011;1747;48.884;9.160;2023-05-10T12:20:15;1.98;;;0.85;;
3465;SDS011;1747;48.884;9.160;2023-05-10T12:22:43;1.13;;;0.60;;
3465;SDS011;1747;48.884;9.160;2023-05-10T12:25:11;1.10;;;0.63;;
3465;SDS011;1747;48.884;9.160;2023-05-10T12:27:38;1.65;;;0.57;;
3465;SDS011;1747;48.884;9.160;2023-05-10T12:30:05;2.33;;;0.70;;
3465;SDS011;1747;48.884;9.160;2023-05-10T12:32:41;3.63;;;0.60;;
3465;SDS011;1747;48.884;9.160;2023-05-10T12:35:08;1.00;;;0.65;;
3465;SDS011;1747;48.884;9.160;2023-05-10T12:37:35;1.38;;;0.60;;
3465;SDS011;1747;48.884;9.160;2023-05-10T12:40:05;2.05;;;0.82;;
3465;SDS011;1747;48.884;9.160;2023-05-10T12:42:34;2.05;;;0.52;;
3465;SDS011;1747;48.884;9.160;2023-05-10T12:45:01;2.40;;;0.82;;
3465;SDS011;1747;48.884;9.160;2023-05-10T12:47:28;5.38;;;0.80;;
3465;SDS011;1747;48.884;9.160;2023-05-10T12:49:57;1.60;;;0.50;;
3465;SDS011;1747;48.884;9.160;2023-05-10T12:52:24;3.00;;;0.57;;
3465;SDS011;1747;48.884;9.160;2023-05-10T12:54:51;1.42;;;0.70;;
3465;SDS011;1747;48.884;9.160;2023-05-10T12:57:18;1.65;;;0.80;;
3465;SDS011;1747;48.884;9.160;2023-05-10T12:59:45;2.08;;;0.60;;
3465;SDS011;1747;48.884;9.160;2023-05-10T13:02:11;4.45;;;0.77;;
3465;SDS011;1747;48.884;9.160;2023-05-10T13:04:39;1.27;;;0.90;;
3465;SDS011;1747;48.884;9.160;2023-05-10T13:07:08;1.40;;;0.60;;
3465;SDS011;1747;48.884;9.160;2023-05-10T13:09:35;1.58;;;0.50;;
3465;SDS011;1747;48.884;9.160;2023-05-10T13:12:02;5.30;;;1.48;;
3465;SDS011;1747;48.884;9.160;2023-05-10T13:14:29;2.58;;;0.60;;
3465;SDS011;1747;48.884;9.160;2023-05-10T13:16:56;4.15;;;0.63;;
3465;SDS011;1747;48.884;9.160;2023-05-10T13:19:23;1.05;;;0.70;;
3465;SDS011;1747;48.884;9.160;2023-05-10T13:21:50;1.08;;;0.70;;
3465;SDS011;1747;48.884;9.160;2023-05-10T13:24:18;3.60;;;0.80;;
3465;SDS011;1747;48.884;9.160;2023-05-10T13:26:45;2.45;;;0.77;;
3465;SDS011;1747;48.884;9.160;2023-05-10T13:29:12;2.03;;;0.80;;
3465;SDS011;1747;48.884;9.160;2023-05-10T13:31:39;0.90;;;0.70;;
3465;SDS011;1747;48.884;9.160;2023-05-10T13:34:05;0.90;;;0.80;;
3465;SDS011;1747;48.884;9.160;2023-05-10T13:36:32;1.65;;;0.63;;
3465;SDS011;1747;48.884;9.160;2023-05-10T13:38:59;3.15;;;0.65;;
3465;SDS011;1747;48.884;9.160;2023-05-10T13:41:29;2.47;;;0.80;;
3465;SDS011;1747;48.884;9.160;2023-05-10T13:43:56;2.15;;;0.90;;
3465;SDS011;1747;48.884;9.160;2023-05-10T13:46:23;2.13;;;0.80;;
3465;SDS011;1747;48.884;9.160;2023-05-10T13:48:50;1.52;;;0.70;;
3465;SDS011;1747;48.884;9.160;2023-05-10T13:51:17;1.08;;;0.82;;
3465;SDS011;1747;48.884;9.160;2023-05-10T13:53:44;0.85;;;0.60;;
3465;SDS011;1747;48.884;9.160;2023-05-10T13:56:12;1.50;;;0.60;;
3465;SDS011;1747;48.884;9.160;2023-05-10T13:58:40;2.78;;;1.20;;
3465;SDS011;1747;48.884;9.160;2023-05-10T14:01:07;1.88;;;1.02;;
3465;SDS011;1747;48.884;9.160;2023-05-10T14:03:34;1.98;;;0.90;;
3465;SDS011;1747;48.884;9.160;2023-05-10T14:06:01;2.00;;;0.70;;
3465;SDS011;1747;48.884;9.160;2023-05-10T14:08:28;1.85;;;0.73;;
3465;SDS011;1747;48.884;9.160;2023-05-10T14:10:54;3.65;;;0.90;;
3465;SDS011;1747;48.884;9.160;2023-05-10T14:13:22;0.80;;;0.80;;
3465;SDS011;1747;48.884;9.160;2023-05-10T14:15:52;4.90;;;0.80;;
3465;SDS011;1747;48.884;9.160;2023-05-10T14:18:19;0.80;;;0.70;;
3465;SDS011;1747;48.884;9.160;2023-05-10T14:20:46;2.90;;;0.90;;
3465;SDS011;1747;48.884;9.160;2023-05-10T14:23:13;4.22;;;0.60;;
3465;SDS011;1747;48.884;9.160;2023-05-10T14:25:40;1.73;;;0.80;;
3465;SDS011;1747;48.884;9.160;2023-05-10T14:28:07;1.17;;;0.80;;
3465;SDS011;1747;48.884;9.160;2023-05-10T14:30:34;2.22;;;0.70;;
3465;SDS011;1747;48.884;9.160;2023-05-10T14:33:02;1.38;;;0.80;;
3465;SDS011;1747;48.884;9.160;2023-05-10T14:35:29;3.15;;;0.95;;
3465;SDS011;1747;48.884;9.160;2023-05-10T14:38:05;1.65;;;1.10;;
3465;SDS011;1747;48.884;9.160;2023-05-10T14:40:32;1.13;;;0.70;;
3465;SDS011;1747;48.884;9.160;2023-05-10T14:42:59;3.22;;;0.73;;
3465;SDS011;1747;48.884;9.160;2023-05-10T14:45:26;0.55;;;0.50;;
3465;SDS011;1747;48.884;9.160;2023-05-10T14:47:53;3.70;;;0.80;;
3465;SDS011;1747;48.884;9.160;2023-05-10T14:50:21;1.77;;;0.80;;
3465;SDS011;1747;48.884;9.160;2023-05-10T14:52:48;1.25;;;0.70;;
3465;SDS011;1747;48.884;9.160;2023-05-10T14:55:15;1.50;;;0.63;;
3465;SDS011;1747;48.884;9.160;2023-05-10T14:57:42;2.47;;;0.98;;
3465;SDS011;1747;48.884;9.160;2023-05-10T15:00:12;0.63;;;0.63;;
3465;SDS011;1747;48.884;9.160;2023-05-10T15:02:40;0.77;;;0.50;;
3465;SDS011;1747;48.884;9.160;2023-05-10T15:05:07;2.45;;;0.73;;
3465;SDS011;1747;48.884;9.160;2023-05-10T15:07:35;0.95;;;0.73;;
3465;SDS011;1747;48.884;9.160;2023-05-10T15:10:03;1.05;;;0.80;;
3465;SDS011;1747;48.884;9.160;2023-05-10T15:12:30;3.38;;;0.82;;
3465;SDS011;1747;48.884;9.160;2023-05-10T15:14:57;1.65;;;0.70;;
3465;SDS011;1747;48.884;9.160;2023-05-10T15:17:24;2.28;;;0.65;;
3465;SDS011;1747;48.884;9.160;2023-05-10T15:19:51;0.63;;;0.60;;
3465;SDS011;1747;48.884;9.160;2023-05-10T15:22:17;1.33;;;0.70;;
3465;SDS011;1747;48.884;9.160;2023-05-10T15:24:45;1.58;;;0.70;;
3465;SDS011;1747;48.884;9.160;2023-05-10T15:27:12;0.57;;;0.57;;
3465;SDS011;1747;48.884;9.160;2023-05-10T15:29:39;1.88;;;0.65;;
3465;SDS011;1747;48.884;9.160;2023-05-10T15:32:06;0.82;;;0.50;;
3465;SDS011;1747;48.884;9.160;2023-05-10T15:34:33;0.93;;;0.60;;
3465;SDS011;1747;48.884;9.160;2023-05-10T15:37:00;3.38;;;0.93;;
3465;SDS011;1747;48.884;9.160;2023-05-10T15:39:27;0.57;;;0.55;;
3465;SDS011;1747;48.884;9.160;2023-05-10T15:41:56;0.95;;;0.70;;
3465;SDS011;1747;48.884;9.160;2023-05-10T15:44:22;2.63;;;0.60;;
3465;SDS011;1747;48.884;9.160;2023-05-10T15:46:49;1.65;;;0.50;;
3465;SDS011;1747;48.884;9.160;2023-05-10T15:49:16;0.88;;;0.60;;
3465;SDS011;1747;48.884;9.160;2023-05-10T15:51:43;2.53;;;0.80;;
3465;SDS011;1747;48.884;9.160;2023-05-10T15:54:10;1.25;;;0.60;;
3465;SDS011;1747;48.884;9.160;2023-05-10T15:56:37;1.67;;;0.50;;
3465;SDS011;1747;48.884;9.160;2023-05-10T15:59:05;0.63;;;0.55;;
3465;SDS011;1747;48.884;9.160;2023-05-10T16:01:32;0.93;;;0.57;;
3465;SDS011;1747;48.884;9.160;2023-05-10T16:03:59;1.38;;;0.60;;
3465;SDS011;1747;48.884;9.160;2023-05-10T16:06:26;2.00;;;0.70;;
3465;SDS011;1747;48.884;9.160;2023-05-10T16:08:53;1.33;;;0.50;;
3465;SDS011;1747;48.884;9.160;2023-05-10T16:11:25;1.67;;;0.70;;
3465;SDS011;1747;48.884;9.160;2023-05-10T16:13:56;0.50;;;0.50;;
3465;SDS011;1747;48.884;9.160;2023-05-10T16:16:25;0.70;;;0.50;;
3465;SDS011;1747;48.884;9.160;2023-05-10T16:18:51;1.38;;;0.50;;
3465;SDS011;1747;48.884;9.160;2023-05-10T16:21:18;5.15;;;0.88;;
3465;SDS011;1747;48.884;9.160;2023-05-10T16:23:46;2.42;;;0.60;;
3465;SDS011;1747;48.884;9.160;2023-05-10T16:26:13;2.13;;;0.75;;
3465;SDS011;1747;48.884;9.160;2023-05-10T16:28:40;1.35;;;0.52;;
3465;SDS011;1747;48.884;9.160;2023-05-10T16:31:06;1.88;;;0.70;;
3465;SDS011;1747;48.884;9.160;2023-05-10T16:33:38;0.60;;;0.60;;
3465;SDS011;1747;48.884;9.160;2023-05-10T16:36:04;0.80;;;0.50;;
3465;SDS011;1747;48.884;9.160;2023-05-10T16:38:31;0.65;;;0.50;;
3465;SDS011;1747;48.884;9.160;2023-05-10T16:41:00;0.95;;;0.50;;
3465;SDS011;1747;48.884;9.160;2023-05-10T16:43:27;1.55;;;0.55;;
3465;SDS011;1747;48.884;9.160;2023-05-10T16:45:54;1.42;;;0.57;;
3465;SDS011;1747;48.884;9.160;2023-05-10T16:48:21;0.50;;;0.50;;
3465;SDS011;1747;48.884;9.160;2023-05-10T16:50:49;1.10;;;0.70;;
3465;SDS011;1747;48.884;9.160;2023-05-10T16:53:16;1.85;;;0.50;;
3465;SDS011;1747;48.884;9.160;2023-05-10T16:55:44;1.45;;;0.60;;
3465;SDS011;1747;48.884;9.160;2023-05-10T16:58:11;0.75;;;0.52;;
3465;SDS011;1747;48.884;9.160;2023-05-10T17:00:37;3.83;;;0.63;;
3465;SDS011;1747;48.884;9.160;2023-05-10T17:03:04;1.95;;;0.70;;
3465;SDS011;1747;48.884;9.160;2023-05-10T17:05:31;2.25;;;0.63;;
3465;SDS011;1747;48.884;9.160;2023-05-10T17:07:59;2.20;;;0.60;;
3465;SDS011;1747;48.884;9.160;2023-05-10T17:10:26;2.30;;;0.90;;
3465;SDS011;1747;48.884;9.160;2023-05-10T17:12:53;1.80;;;0.93;;
3465;SDS011;1747;48.884;9.160;2023-05-10T17:15:20;0.90;;;0.75;;
3465;SDS011;1747;48.884;9.160;2023-05-10T17:17:46;1.08;;;0.70;;
3465;SDS011;1747;48.884;9.160;2023-05-10T17:20:13;2.10;;;1.00;;
3465;SDS011;1747;48.884;9.160;2023-05-10T17:22:40;1.13;;;0.70;;
3465;SDS011;1747;48.884;9.160;2023-05-10T17:25:08;2.08;;;0.60;;
3465;SDS011;1747;48.884;9.160;2023-05-10T17:27:35;2.95;;;0.82;;
3465;SDS011;1747;48.884;9.160;2023-05-10T17:30:02;1.30;;;0.90;;
3465;SDS011;1747;48.884;9.160;2023-05-10T17:32:30;0.90;;;0.63;;
3465;SDS011;1747;48.884;9.160;2023-05-10T17:34:58;2.25;;;0.90;;
3465;SDS011;1747;48.884;9.160;2023-05-10T17:37:24;3.83;;;0.93;;
3465;SDS011;1747;48.884;9.160;2023-05-10T17:39:51;0.98;;;0.73;;
3465;SDS011;1747;48.884;9.160;2023-05-10T17:42:19;1.15;;;0.80;;
3465;SDS011;1747;48.884;9.160;2023-05-10T17:44:46;1.48;;;0.90;;
3465;SDS011;1747;48.884;9.160;2023-05-10T17:47:13;4.47;;;0.60;;
3465;SDS011;1747;48.884;9.160;2023-05-10T17:49:40;1.10;;;0.75;;
3465;SDS011;1747;48.884;9.160;2023-05-10T17:52:06;1.38;;;0.80;;
3465;SDS011;1747;48.884;9.160;2023-05-10T17:54:33;1.92;;;0.88;;
3465;SDS011;1747;48.884;9.160;2023-05-10T17:57:00;2.55;;;0.60;;
3465;SDS011;1747;48.884;9.160;2023-05-10T17:59:29;1.17;;;0.85;;
3465;SDS011;1747;48.884;9.160;2023-05-10T18:01:55;0.60;;;0.60;;
3465;SDS011;1747;48.884;9.160;2023-05-10T18:04:22;1.42;;;0.85;;
3465;SDS011;1747;48.884;9.160;2023-05-10T18:06:49;1.17;;;0.65;;
3465;SDS011;1747;48.884;9.160;2023-05-10T18:09:19;0.75;;;0.50;;
3465;SDS011;1747;48.884;9.160;2023-05-10T18:11:46;3.03;;;0.70;;
3465;SDS011;1747;48.884;9.160;2023-05-10T18:14:12;2.67;;;0.60;;
3465;SDS011;1747;48.884;9.160;2023-05-10T18:16:41;1.85;;;0.70;;
3465;SDS011;1747;48.884;9.160;2023-05-10T18:19:08;1.10;;;0.70;;
3465;SDS011;1747;48.884;9.160;2023-05-10T18:21:35;1.27;;;0.80;;
3465;SDS011;1747;48.884;9.160;2023-05-10T18:24:03;1.10;;;0.88;;
3465;SDS011;1747;48.884;9.160;2023-05-10T18:26:30;1.70;;;0.80;;
3465;SDS011;1747;48.884;9.160;2023-05-10T18:28:57;1.40;;;0.68;;
3465;SDS011;1747;48.884;9.160;2023-05-10T18:31:24;1.40;;;0.70;;
3465;SDS011;1747;48.884;9.160;2023-05-10T18:33:52;2.15;;;0.80;;
3465;SDS011;1747;48.884;9.160;2023-05-10T18:36:19;2.10;;;0.88;;
3465;SDS011;1747;48.884;9.160;2023-05-10T18:38:47;2.40;;;0.70;;
3465;SDS011;1747;48.884;9.160;2023-05-10T18:41:14;2.28;;;0.70;;
3465;SDS011;1747;48.884;9.160;2023-05-10T18:43:41;2.20;;;0.60;;
3465;SDS011;1747;48.884;9.160;2023-05-10T18:46:08;1.35;;;0.60;;
3465;SDS011;1747;48.884;9.160;2023-05-10T18:48:35;1.65;;;0.85;;
3465;SDS011;1747;48.884;9.160;2023-05-10T18:51:04;3.15;;;1.17;;
3465;SDS011;1747;48.884;9.160;2023-05-10T18:53:30;2.05;;;0.73;;
3465;SDS011;1747;48.884;9.160;2023-05-10T18:55:58;2.78;;;0.80;;
3465;SDS011;1747;48.884;9.160;2023-05-10T18:58:26;1.50;;;0.90;;
3465;SDS011;1747;48.884;9.160;2023-05-10T19:00:53;2.65;;;0.70;;
3465;SDS011;1747;48.884;9.160;2023-05-10T19:03:20;5.65;;;0.90;;
3465;SDS011;1747;48.884;9.160;2023-05-10T19:05:47;0.63;;;0.63;;
3465;SDS011;1747;48.884;9.160;2023-05-10T19:08:15;2.45;;;1.00;;
3465;SDS011;1747;48.884;9.160;2023-05-10T19:10:42;1.25;;;0.77;;
3465;SDS011;1747;48.884;9.160;2023-05-10T19:13:09;1.40;;;0.75;;
3465;SDS011;1747;48.884;9.160;2023-05-10T19:15:36;0.88;;;0.50;;
3465;SDS011;1747;48.884;9.160;2023-05-10T19:18:03;1.77;;;0.80;;
3465;SDS011;1747;48.884;9.160;2023-05-10T19:20:30;2.65;;;0.60;;
3465;SDS011;1747;48.884;9.160;2023-05-10T19:22:57;2.60;;;0.70;;
3465;SDS011;1747;48.884;9.160;2023-05-10T19:25:25;2.38;;;0.60;;
3465;SDS011;1747;48.884;9.160;2023-05-10T19:27:53;1.90;;;0.85;;
3465;SDS011;1747;48.884;9.160;2023-05-10T19:30:21;2.97;;;0.70;;
3465;SDS011;1747;48.884;9.160;2023-05-10T19:32:48;3.63;;;0.98;;
3465;SDS011;1747;48.884;9.160;2023-05-10T19:35:15;0.60;;;0.60;;
3465;SDS011;1747;48.884;9.160;2023-05-10T19:37:42;1.83;;;0.50;;
3465;SDS011;1747;48.884;9.160;2023-05-10T19:40:10;3.08;;;0.70;;
3465;SDS011;1747;48.884;9.160;2023-05-10T19:42:40;2.58;;;0.75;;
3465;SDS011;1747;48.884;9.160;2023-05-10T19:45:08;1.85;;;0.60;;
3465;SDS011;1747;48.884;9.160;2023-05-10T19:47:35;2.13;;;0.80;;
3465;SDS011;1747;48.884;9.160;2023-05-10T19:50:03;1.65;;;0.88;;
3465;SDS011;1747;48.884;9.160;2023-05-10T19:52:31;1.38;;;0.75;;